sim
Sign-in with your pilot id or email,
or register
Callsign
Passwort

Schedule Details

Flight Number: OEO5007
Departure: Warsaw Chopin Airport (EPWA) at 06:35
Arrival: Munich Airport (EDDM) at 08:15

Weather Information
Getting current METAR information for EPWA 271100Z 25011KT 8000 -RA BKN006 11/10 Q1002 NOSIG
Getting current METAR information for EDDM 271050Z 20006KT 130V270 9999 FEW043 13/03 Q1006 NOSIG

Schedule Frequency

Route Map